Tiempo atmosférico en la estación meteorológica de Plasencia, Cáceres (420 m.)



Fecha
DESCASC
Temp. máxima en grados centígrados (hora)
DESCASC
Temp. mínima en grados centígrados (hora)
DESCASC
Temp. media en grados centígrados
DESCASC
Racha de viento máxima en m/sg (hora)
DESCASC
Velocidad máxima media en intervalos de 10 minutos(hora)
DESCASC
Precipitaciones diarias en mm
DESCASC
Precipitaciones de 00:00 a 06:00 en mm
DESCASC
Precipitaciones de 06:00 a 12:00 en mm
DESCASC
Precipitaciones de 12:00 a 18:00 en mm
DESCASC
Precipitaciones de 18:00 a 24:00 en mm
DESCASC
06-01-2020 13.3 (16:00) 1.5 (00:00) 7.4 3.89 (08:50) 1.67 (08:50) 0 0 0 0 0
20-01-2020 7.3 (17:00) 3.4 (00:00) 5.4 18.61 (00:30) 8.06 (00:10) 0 0 0 0 0
19-01-2020 12 (13:50) 5.5 (00:00) 8.8 21.39 (22:50) 9.72 (23:30) 0 0 0 0 0
17-01-2020 15.2 (16:40) 9 (00:00) 12.1 4.44 (16:10) 1.94 (16:10) 0.1 0 0 0.1 0
16-01-2020 15.9 (15:50) 8.8 (00:00) 12.3 8.33 (01:30) 3.33 (00:20) 2 1.4 0 0 0.6
14-01-2020 10.8 (15:30) 2.4 (00:00) 6.6 6.39 (20:40) 2.78 (21:00) 0.3 0 0 0 0.3
13-01-2020 12.2 (16:10) 1.6 (00:00) 6.9 6.11 (08:00) 2.22 (08:00) 0 0 0 0 0
12-01-2020 12.6 (17:20) 0 (00:00) 6.3 3.89 (15:50) 1.67 (22:30) 0 0 0 0 0
11-01-2020 12.9 (16:50) 1.9 (00:00) 7.4 4.44 (12:00) 1.67 (23:20) 0 0 0 0 0
10-01-2020 13.4 (16:20) 5.7 (00:00) 9.5 12.78 (05:50) 4.44 (05:40) 0 0 0 0 0
09-01-2020 13.9 (16:40) 4.1 (00:00) 9 5 (02:40) 2.22 (02:50) 0 0 0 0 0
08-01-2020 13.2 (17:10) 1.2 (00:00) 7.2 3.61 (05:50) 1.94 (00:10) 0 0 0 0 0
07-01-2020 13.9 (16:40) 1.8 (00:00) 7.8 3.61 (00:30) 1.67 (23:59) 0 0 0 0 0
22-12-2019 16.2 (17:00) 9.2 (00:00) 12.7 13.61 (00:10) 6.39 (11:30) 0.5 0 0 0.5 0
05-01-2020 13.8 (17:20) 0.9 (00:00) 7.4 2.78 (14:20) 1.39 (23:20) 0 0 0 0 0
04-01-2020 13.1 (16:50) 1.8 (00:00) 7.5 3.61 (03:50) 1.67 (03:50) 0 0 0 0 0
03-01-2020 11.1 (16:00) 3.1 (00:00) 7.1 3.89 (14:20) 1.39 (14:20) 0 0 0 0 0
02-01-2020 11.1 (16:00) 1.2 (00:00) 6.2 5.83 (10:50) 2.5 (09:30) 0 0 0 0 0
01-01-2020 12.8 (17:20) 3.9 (00:00) 8.4 5.83 (09:40) 2.5 (09:30) 0 0 0 0 0
31-12-2019 13.9 (17:00) 4 (00:00) 8.9 5 (09:20) 1.67 (05:10) 0 0 0 0 0
30-12-2019 15.8 (17:10) 4 (00:00) 9.9 4.44 (04:30) 2.22 (03:00) 0 0 0 0 0
29-12-2019 15.7 (16:00) 6 (00:00) 10.8 6.67 (06:30) 3.61 (08:30) 0 0 0 0 0
28-12-2019 17.6 (16:40) 5.9 (00:00) 11.8 5.83 (08:10) 2.78 (12:30) 0 0 0 0 0
27-12-2019 15.8 (15:40) 5.9 (00:00) 10.9 5.83 (13:10) 2.5 (16:40) 0 0 0 0 0
26-12-2019 17.3 (16:00) 6.1 (00:00) 11.7 5 (14:20) 2.5 (13:50) 0 0 0 0 0
25-12-2019 17.1 (15:40) 9.6 (00:00) 13.4 8.61 (06:20) 3.61 (08:20) 0 0 0 0 0
24-12-2019 13.8 (15:40) 6.8 (00:00) 10.3 6.94 (23:10) 2.5 (22:50) 0 0 0 0 0
23-12-2019 13.1 (14:10) 4.8 (00:00) 9 4.72 (05:30) 2.78 (06:30) 0 0 0 0 0
15-01-2020 9.1 (00:10) 7.4 (00:00) 8.3 10.28 (19:00) 4.17 (20:20) 7.2 0 1.2 5.9 0.1
18-01-2020 11.3 (14:40) 7.6 (00:00) 9.5 9.17 (09:10) 3.06 (09:10) 9.3 3.2 5.4 0.1 0.6

Gráficas

Temp. máximas Temp. mínimas Temp. medias Precipitaciones Rachas de viento máximas Velocidades máximas media en intervalos de 10 minutos

Datos horarios

Fecha y hora oficial Temperatura (ºC) Velocidad del viento (km/h) Dirección del viento Racha (km/h) Dirección de racha Precipitación (mm) Presión (hPa) Tendencia (hPa) Humedad (%)
2020-01-20 23:00:00 6.3 5 Nordeste 27 Nordeste 0 -- -- 50
2020-01-20 22:00:00 6.8 15 Nordeste 32 Nordeste 0 -- -- 47
2020-01-20 21:00:00 6.2 11 Nordeste 38 Este 0 -- -- 48
2020-01-20 20:00:00 6.2 19 Este 43 Este 0 -- -- 46
2020-01-20 19:00:00 6.1 17 Este 41 Este 0 -- -- 46
2020-01-20 18:00:00 6.1 15 Nordeste 35 Nordeste 0 -- -- 45
2020-01-20 17:00:00 7.3 14 Nordeste 40 Nordeste 0 -- -- 45
2020-01-20 16:00:00 6.4 17 Este 44 Nordeste 0 -- -- 45
2020-01-20 15:00:00 6.4 17 Nordeste 41 Este 0 -- -- 42
2020-01-20 14:00:00 6.1 14 Este 44 Este 0 -- -- 42
2020-01-20 13:00:00 6.2 19 Nordeste 45 Nordeste 0 -- -- 41
2020-01-20 12:00:00 5.9 20 Nordeste 48 Nordeste 0 -- -- 42
2020-01-20 11:00:00 4.5 19 Nordeste 46 Este 0 -- -- 42
2020-01-20 10:00:00 3.7 16 Nordeste 49 Nordeste 0 -- -- 45
2020-01-20 09:00:00 3.5 23 Nordeste 51 Nordeste 0 -- -- 44
2020-01-20 08:00:00 3.6 21 Nordeste 52 Este 0 -- -- 42
2020-01-20 07:00:00 3.8 20 Nordeste 49 Este 0 -- -- 42
2020-01-20 06:00:00 4 19 Nordeste 51 Este 0 -- -- 42
2020-01-20 05:00:00 4.2 22 Nordeste 49 Nordeste 0 -- -- 42
2020-01-20 04:00:00 4.6 21 Nordeste 50 Nordeste 0 -- -- 42
2020-01-20 03:00:00 5.1 23 Nordeste 53 Este 0 -- -- 42
2020-01-20 02:00:00 5.1 20 Nordeste 56 Nordeste 0 -- -- 42
2020-01-20 01:00:00 5.2 23 Nordeste 67 Este 0 -- -- 42
2020-01-20 00:00:00 5.5 32 Nordeste 76 Nordeste 0 -- -- 41
2020-01-19 23:00:00 5.8 31 Nordeste 77 Nordeste 0 -- -- 39
2020-01-19 22:00:00 5.9 19 Nordeste 47 Este 0 -- -- 40
2020-01-19 21:00:00 6.4 11 Nordeste 35 Nordeste 0 -- -- 41
2020-01-19 20:00:00 7.1 10 Nordeste 39 Nordeste 0 -- -- 42
2020-01-19 19:00:00 8 17 Nordeste 49 Norte 0 -- -- 42
2020-01-19 18:00:00 9.7 22 Nordeste 56 Nordeste 0 -- -- 40
2020-01-19 17:00:00 10.8 16 Nordeste 49 Nordeste 0 -- -- 39
2020-01-19 16:00:00 11.6 15 Nordeste 46 Nordeste 0 -- -- 39
2020-01-19 15:00:00 11.6 19 Nordeste 45 Nordeste 0 -- -- 40
2020-01-19 14:00:00 12 10 Este 50 Este 0 -- -- 42
2020-01-19 13:00:00 11.5 14 Nordeste 47 Nordeste 0 -- -- 45
2020-01-19 12:00:00 9.7 18 Nordeste 49 Nordeste 0 -- -- 55
2020-01-19 11:00:00 9.7 22 Nordeste 41 Nordeste 0 -- -- 59
2020-01-19 10:00:00 7.3 8 Norte 31 Noroeste 0 -- -- 71
2020-01-19 09:00:00 7.7 10 Norte 33 Norte 0 -- -- 68
2020-01-19 08:00:00 7.6 9 Norte 35 Norte 0 -- -- 70
2020-01-19 07:00:00 8 11 Norte 37 Norte 0 -- -- 72
2020-01-19 06:00:00 8.3 6 Nordeste 23 Norte 0 -- -- 76
2020-01-19 05:00:00 7.8 2 Nordeste 19 Este 0 -- -- 82
2020-01-19 04:00:00 7.4 6 Noroeste 19 Noroeste 0 -- -- 86
2020-01-19 03:00:00 7 6 Noroeste 23 Noroeste 0 -- -- 84
2020-01-19 02:00:00 7.4 9 Noroeste 18 Oeste 0 -- -- 83
2020-01-19 01:00:00 7.6 8 Noroeste 22 Noroeste 0 -- -- 81
2020-01-19 00:00:00 8.8 6 Noroeste 25 Norte 0 -- -- 75
2020-01-18 23:00:00 8.9 9 Noroeste 29 Noroeste 0.1 -- -- 92
2020-01-18 22:00:00 10.4 6 Oeste 21 Oeste 0.5 -- -- 98
2020-01-18 21:00:00 10.7 5 Oeste 16 Oeste 0 -- -- 97
2020-01-18 20:00:00 11.1 5 Noroeste 18 Oeste 0 -- -- 96
2020-01-18 19:00:00 10.8 0 Calma 6 Sudoeste 0 -- -- 94
2020-01-18 18:00:00 10.5 2 Este 9 Este 0.1 -- -- 94
2020-01-18 17:00:00 10.6 4 Este 15 Este 0 -- -- 91
2020-01-18 16:00:00 10.8 4 Este 18 Este 0 -- -- 88
2020-01-18 15:00:00 11 5 Sudeste 24 Este 0 -- -- 87
2020-01-18 14:00:00 10.7 6 Este 27 Sudeste 0 -- -- 88
2020-01-18 13:00:00 10.7 8 Este 26 Este 0 -- -- 91
2020-01-18 12:00:00 9.9 9 Este 31 Este 0.1 -- -- 95
2020-01-18 11:00:00 8.5 8 Sudeste 30 Sudeste 0.1 -- -- 97
2020-01-18 10:00:00 8.2 10 Sudeste 33 Este 0.7 -- -- 97
2020-01-18 09:00:00 7.7 7 Sudeste 29 Este 0.4 -- -- 97
2020-01-18 08:00:00 8.3 4 Sudeste 20 Este 0.8 -- -- 97
2020-01-18 07:00:00 8.2 7 Este 22 Este 3.3 -- -- 96
2020-01-18 06:00:00 8.4 7 Este 17 Este 1.2 -- -- 94
2020-01-18 05:00:00 8.9 7 Este 16 Este 1.9 -- -- 91
2020-01-18 04:00:00 9.2 5 Este 14 Este 0.1 -- -- 84
2020-01-18 03:00:00 9.3 5 Este 14 Este 0 -- -- 80
2020-01-18 02:00:00 8.7 5 Este 15 Este 0 -- -- 81
2020-01-18 01:00:00 9.1 3 Este 8 Este 0 -- -- 79
2020-01-18 00:00:00 9.1 0 Calma 10 Este 0 -- -- 80
2020-01-17 23:00:00 9.2 4 Este 10 Sudeste 0 -- -- 79
2020-01-17 22:00:00 9.5 4 Este 9 Este 0 -- -- 76
2020-01-17 21:00:00 10.1 0 Calma -- -- 0 -- -- 72
2020-01-17 20:00:00 10.5 0 Calma 8 Oeste 0 -- -- 70
2020-01-17 19:00:00 11.1 0 Calma 5 Oeste 0 -- -- 65
2020-01-17 18:00:00 12.6 2 Oeste 10 Oeste 0 -- -- 59
2020-01-17 17:00:00 14.6 4 Oeste 16 Sudoeste 0 -- -- 58
2020-01-17 16:00:00 14.5 5 Oeste 15 Oeste 0 -- -- 60
2020-01-17 15:00:00 13.3 2 Oeste 13 Oeste 0.1 -- -- 68
2020-01-17 14:00:00 12.5 3 Oeste 15 Oeste 0 -- -- 76
2020-01-17 13:00:00 10.9 5 Noroeste 15 Noroeste 0 -- -- 90
2020-01-17 12:00:00 10.4 5 Oeste 15 Sudoeste 0 -- -- 94
2020-01-17 11:00:00 10.1 3 Oeste 10 Noroeste 0 -- -- 94
2020-01-17 10:00:00 9.6 0 Calma 5 Oeste 0 -- -- 94
2020-01-17 09:00:00 9.3 0 Calma 5 Oeste 0 -- -- 94
2020-01-17 08:00:00 9.4 0 Calma 9 Oeste 0 -- -- 94
2020-01-17 07:00:00 9.4 4 Oeste 8 Oeste 0 -- -- 94
2020-01-17 06:00:00 9.8 2 Oeste 10 Oeste 0 -- -- 91
2020-01-17 05:00:00 9.8 2 Oeste 10 Sudoeste 0 -- -- 91
2020-01-17 04:00:00 10.1 0 Calma 7 Sudoeste 0 -- -- 89
2020-01-17 03:00:00 10.2 0 Calma 7 Sudoeste 0 -- -- 88
2020-01-17 02:00:00 10.4 0 Calma 8 Sudoeste 0 -- -- 85
2020-01-17 01:00:00 10.7 0 Calma 10 Sur 0 -- -- 83
2020-01-17 00:00:00 11.2 3 Sur 11 Sur 0 -- -- 76
2020-01-16 23:00:00 11.4 3 Sur 19 Este 0 -- -- 70
2020-01-16 22:00:00 11.1 0 Calma 9 Sur 0.6 -- -- 73
2020-01-16 21:00:00 12.3 2 Sudeste 10 Este 0 -- -- 57
2020-01-16 20:00:00 12.7 0 Calma 10 Sur 0 -- -- 55
2020-01-16 19:00:00 12.7 2 Sudeste 16 Sur 0 -- -- 55
2020-01-16 18:00:00 13.6 3 Sur 19 Sur 0 -- -- 55
2020-01-16 17:00:00 14.6 5 Sur 22 Sur 0 -- -- 54
2020-01-16 16:00:00 15.8 6 Sur 18 Sur 0 -- -- 56
2020-01-16 15:00:00 15.8 4 Sudeste 15 Sur 0 -- -- 66
2020-01-16 14:00:00 14.3 3 Sur 18 Sudeste 0 -- -- 73
2020-01-16 13:00:00 12.5 6 Sudeste 21 Este 0 -- -- 79
2020-01-16 12:00:00 12 5 Sur 17 Sur 0 -- -- 86
2020-01-16 11:00:00 10.1 4 Sudeste 21 Sudeste 0 -- -- 95
2020-01-16 10:00:00 9.5 6 Este 19 Este 0 -- -- 96
2020-01-16 09:00:00 9.2 5 Este 23 Sudeste 0 -- -- 97
2020-01-16 08:00:00 8.9 5 Este 18 Este 0 -- -- 97
2020-01-16 07:00:00 9.3 7 Este 16 Este 0 -- -- 97
2020-01-16 06:00:00 9.4 6 Este 19 Este 0 -- -- 97
2020-01-16 05:00:00 9.1 5 Este 22 Sudeste 0 -- -- 97
2020-01-16 04:00:00 9 4 Este 17 Nordeste 0 -- -- 97
2020-01-16 03:00:00 9 5 Nordeste 23 Sudeste 1.1 -- -- 97
2020-01-16 02:00:00 9.1 8 Este 30 Este 0.3 -- -- 96
2020-01-16 01:00:00 9.2 9 Sudeste 28 Este 0 -- -- 96
2020-01-16 00:00:00 8.9 9 Este 27 Este 0 -- -- 97
2020-01-15 23:00:00 8.8 8 Este 27 Este 0.1 -- -- 98
2020-01-15 22:00:00 8.7 8 Este 23 Este 0 -- -- 97
2020-01-15 21:00:00 8.4 9 Este 32 Este 0 -- -- 97
2020-01-15 20:00:00 8.4 8 Este 26 Este 0 -- -- 98
2020-01-15 19:00:00 8.1 10 Este 37 Este 0 -- -- 98
2020-01-15 18:00:00 8.2 12 Sudeste 28 Sudeste 0 -- -- 97
2020-01-15 17:00:00 8.3 9 Este 23 Este 0 -- -- 97
2020-01-15 16:00:00 8.2 11 Este 22 Este 0.1 -- -- 97
2020-01-15 15:00:00 8 7 Sudeste 21 Este 0.9 -- -- 98
2020-01-15 14:00:00 8.4 6 Sudeste 19 Este 1.5 -- -- 97
2020-01-15 13:00:00 7.6 6 Este 20 Sudeste 3.4 -- -- 97
2020-01-15 12:00:00 7.4 9 Este 23 Este 0.2 -- -- 97
2020-01-15 11:00:00 8.2 8 Este 25 Sudeste 0 -- -- 94
2020-01-15 10:00:00 7.6 9 Este 33 Este 0 -- -- 93
2020-01-15 09:00:00 7.7 6 Sudeste 31 Este 0.6 -- -- 92
2020-01-15 08:00:00 7.9 12 Este 27 Este 0.4 -- -- 91
2020-01-15 07:00:00 8.1 7 Este 28 Este 0 -- -- 86
2020-01-15 06:00:00 8.7 8 Este 24 Este 0 -- -- 82
2020-01-15 05:00:00 8.6 4 Este 23 Este 0 -- -- 82
2020-01-15 04:00:00 8.8 4 Sudeste 15 Sur 0 -- -- 83
2020-01-15 03:00:00 8.5 6 Este 22 Este 0 -- -- 86
2020-01-15 02:00:00 8.5 7 Este 24 Este 0 -- -- 86
2020-01-15 01:00:00 8.7 5 Sudeste 21 Sudeste 0 -- -- 84
2020-01-15 00:00:00 9 6 Este 21 Sudeste 0 -- -- 84
2020-01-14 23:00:00 8.9 6 Este 20 Este 0 -- -- 86
2020-01-14 22:00:00 8.2 9 Este 21 Este 0 -- -- 87
2020-01-14 21:00:00 8.2 10 Este 23 Este 0 -- -- 87
2020-01-14 20:00:00 7.6 6 Este 17 Este 0.3 -- -- 87
2020-01-14 19:00:00 7.7 6 Este 18 Este 0 -- -- 76
2020-01-14 18:00:00 8.3 6 Este 15 Sudeste 0 -- -- 75
2020-01-14 17:00:00 9.2 5 Sudeste 16 Sudeste 0 -- -- 74
2020-01-14 16:00:00 10.4 5 Sudeste 19 Este 0 -- -- 68
2020-01-14 15:00:00 10 6 Este 17 Este 0 -- -- 71
2020-01-14 14:00:00 7.1 5 Sudeste 13 Este 0 -- -- 81
2020-01-14 13:00:00 6 4 Este 17 Este 0 -- -- 80
2020-01-14 12:00:00 6.2 3 Este 14 Este 0 -- -- 81
2020-01-14 11:00:00 5.3 5 Este 14 Este 0 -- -- 83
2020-01-14 10:00:00 4.3 5 Este 12 Este 0 -- -- 84
2020-01-14 09:00:00 3.9 3 Este 9 Este 0 -- -- 83
2020-01-14 08:00:00 3.8 4 Este 18 Este 0 -- -- 74
2020-01-14 07:00:00 3.6 6 Este 18 Este 0 -- -- 76
2020-01-14 06:00:00 3.7 5 Nordeste 14 Este 0 -- -- 76
2020-01-14 05:00:00 3.1 5 Este 12 Este 0 -- -- 81
2020-01-14 04:00:00 3.2 5 Este 12 Nordeste 0 -- -- 81
2020-01-14 03:00:00 2.6 6 Este 12 Este 0 -- -- 83
2020-01-14 02:00:00 3.5 6 Este 12 Este 0 -- -- 80
2020-01-14 01:00:00 4.2 5 Este 12 Nordeste 0 -- -- 76
2020-01-14 00:00:00 4.1 5 Este 11 Sudeste 0 -- -- 76
2020-01-13 23:00:00 4.5 5 Este 10 Este 0 -- -- 74
2020-01-13 22:00:00 5.2 6 Este 13 Este 0 -- -- 72
2020-01-13 21:00:00 5.7 5 Este 12 Este 0 -- -- 70
2020-01-13 20:00:00 6.8 3 Este 6 Este 0 -- -- 68
2020-01-13 19:00:00 7.7 3 Sudeste 8 Este 0 -- -- 65
2020-01-13 18:00:00 10.9 0 Calma 8 Sur 0 -- -- 58
2020-01-13 17:00:00 12.2 0 Calma 12 Oeste 0 -- -- 54
2020-01-13 16:00:00 12 3 Sur 10 Sudeste 0 -- -- 54
2020-01-13 15:00:00 10.5 4 Sudoeste 12 Sudoeste 0 -- -- 62
2020-01-13 14:00:00 10.7 2 Sudeste 12 Nordeste 0 -- -- 63
2020-01-13 13:00:00 8.4 0 Calma 13 Este 0 -- -- 69
2020-01-13 12:00:00 6.1 3 Este 15 Este 0 -- -- 76
2020-01-13 11:00:00 4.1 6 Este 16 Este 0 -- -- 80
2020-01-13 10:00:00 3.7 4 Este 13 Sudeste 0 -- -- 82
2020-01-13 09:00:00 2.8 5 Este 19 Este 0 -- -- 83
2020-01-13 08:00:00 3 8 Este 22 Este 0 -- -- 83
2020-01-13 07:00:00 2.5 5 Este 12 Este 0 -- -- 80
2020-01-13 06:00:00 1.9 4 Este 14 Este 0 -- -- 76
2020-01-13 05:00:00 1.8 5 Este 13 Este 0 -- -- 81
2020-01-13 04:00:00 2.8 4 Este 12 Este 0 -- -- 81
2020-01-13 03:00:00 3.6 5 Este 10 Este 0 -- -- 76
2020-01-13 02:00:00 4.1 5 Este 10 Nordeste 0 -- -- 76
2020-01-13 01:00:00 4.7 5 Este 11 Este 0 -- -- 76
2020-01-13 00:00:00 4.7 5 Este 12 Este 0 -- -- 76
2020-01-12 23:00:00 4.5 5 Este 12 Este 0 -- -- 76
2020-01-12 22:00:00 5.3 5 Este 9 Este 0 -- -- 76
2020-01-12 21:00:00 6.1 4 Este 7 Este 0 -- -- 72
2020-01-12 20:00:00 7 0 Calma -- -- 0 -- -- 69
2020-01-12 19:00:00 9.1 0 Calma 4 Oeste 0 -- -- 59
2020-01-12 18:00:00 11.9 3 Oeste 7 Noroeste 0 -- -- 53
2020-01-12 17:00:00 12.3 0 Calma 9 Oeste 0 -- -- 51
2020-01-12 16:00:00 11.8 4 Noroeste 14 Oeste 0 -- -- 54
2020-01-12 15:00:00 11 4 Noroeste 12 Noroeste 0 -- -- 59
2020-01-12 14:00:00 10.6 4 Oeste 11 Sudoeste 0 -- -- 62
2020-01-12 13:00:00 8.7 3 Sudoeste 7 Sudoeste 0 -- -- 66
2020-01-12 12:00:00 5.6 2 Oeste 8 Este 0 -- -- 76
2020-01-12 11:00:00 3.3 2 Este 13 Este 0 -- -- 82
2020-01-12 10:00:00 1.4 5 Este 11 Este 0 -- -- 86
2020-01-12 09:00:00 0.8 3 Este 6 Sudeste 0 -- -- 84
2020-01-12 08:00:00 0 0 Calma 4 Este 0 -- -- 84
2020-01-12 07:00:00 0.4 0 Calma 4 Sudeste 0 -- -- 81
2020-01-12 06:00:00 1.2 0 Calma 4 Sudeste 0 -- -- 81
2020-01-12 05:00:00 1.4 0 Calma 5 Sudeste 0 -- -- 81
2020-01-12 04:00:00 1.9 2 Sudeste 7 Este 0 -- -- 79
2020-01-12 03:00:00 2.6 0 Calma 6 Este 0 -- -- 76
2020-01-12 02:00:00 2.8 0 Calma 9 Este 0 -- -- 76
2020-01-12 01:00:00 3.8 5 Este 11 Este 0 -- -- 75
2020-01-12 00:00:00 4.3 5 Este 12 Nordeste 0 -- -- 73
2020-01-11 23:00:00 5 5 Este 9 Este 0 -- -- 74
2020-01-11 22:00:00 5.4 2 Este 8 Este 0 -- -- 72
2020-01-11 21:00:00 6.3 5 Este 10 Este 0 -- -- 67
2020-01-11 20:00:00 7 0 Calma 6 Este 0 -- -- 64
2020-01-11 19:00:00 9.4 0 Calma 3 Oeste 0 -- -- 55
2020-01-11 18:00:00 12.2 0 Calma 6 Noroeste 0 -- -- 50
2020-01-11 17:00:00 12.6 0 Calma 12 Este 0 -- -- 48
2020-01-11 16:00:00 12.4 4 Sudeste 14 Sudeste 0 -- -- 49
2020-01-11 15:00:00 11.1 0 Calma 13 Sudeste 0 -- -- 54
2020-01-11 14:00:00 11.3 4 Sudeste 13 Sudeste 0 -- -- 56
2020-01-11 13:00:00 10.4 4 Sudeste 14 Este 0 -- -- 59
2020-01-11 12:00:00 8 6 Sudeste 16 Sudeste 0 -- -- 65
2020-01-11 11:00:00 4.4 3 Este 8 Este 0 -- -- 74
2020-01-11 10:00:00 2.6 4 Este 9 Este 0 -- -- 76
2020-01-11 09:00:00 2.1 3 Este 10 Sudeste 0 -- -- 80
2020-01-11 08:00:00 3.2 4 Sudeste 9 Este 0 -- -- 76
2020-01-11 07:00:00 3.6 0 Calma 5 Este 0 -- -- 71
2020-01-11 06:00:00 3.7 2 Sudeste 9 Nordeste 0 -- -- 71
2020-01-11 05:00:00 4.4 4 Este 10 Nordeste 0 -- -- 66
2020-01-11 04:00:00 4.9 5 Nordeste 12 Nordeste 0 -- -- 65
2020-01-11 03:00:00 4.3 3 Este 9 Este 0 -- -- 67
2020-01-11 02:00:00 5.3 0 Calma 9 Sudoeste 0 -- -- 61
2020-01-11 01:00:00 6.3 0 Calma 12 Nordeste 0 -- -- 56
2020-01-11 00:00:00 7 2 Nordeste 9 Este 0 -- -- 54
2020-01-10 23:00:00 8 3 Nordeste 20 Este 0 -- -- 52
2020-01-10 22:00:00 8.9 9 Nordeste 25 Nordeste 0 -- -- 51
2020-01-10 21:00:00 9.5 11 Nordeste 23 Este 0 -- -- 51
2020-01-10 20:00:00 9.4 7 Nordeste 18 Nordeste 0 -- -- 51
2020-01-10 19:00:00 10.1 8 Nordeste 27 Nordeste 0 -- -- 52
2020-01-10 18:00:00 11.5 6 Nordeste 19 Norte 0 -- -- 54
2020-01-10 17:00:00 12.7 8 Norte 23 Norte 0 -- -- 48
2020-01-10 16:00:00 12.9 0 Calma 14 Norte 0 -- -- 48
2020-01-10 15:00:00 12.4 0 Calma 8 Oeste 0 -- -- 52
2020-01-10 14:00:00 12.8 3 Este 12 Sudeste 0 -- -- 51
2020-01-10 13:00:00 12.1 2 Noroeste 20 Norte 0 -- -- 50
2020-01-10 12:00:00 10.6 4 Norte 26 Nordeste 0 -- -- 53
2020-01-10 11:00:00 9.3 10 Nordeste 27 Este 0 -- -- 56
2020-01-10 10:00:00 6.6 4 Nordeste 13 Este 0 -- -- 64
2020-01-10 09:00:00 6.1 3 Este 18 Este 0 -- -- 66
2020-01-10 08:00:00 6.1 4 Nordeste 24 Norte 0 -- -- 69
2020-01-10 07:00:00 6 9 Norte 37 Norte 0 -- -- 69
2020-01-10 06:00:00 6.4 14 Norte 46 Norte 0 -- -- 68
2020-01-10 05:00:00 7.1 13 Norte 37 Norte 0 -- -- 66
2020-01-10 04:00:00 7.5 12 Nordeste 40 Nordeste 0 -- -- 67
2020-01-10 03:00:00 7.8 7 Norte 28 Norte 0 -- -- 70
2020-01-10 02:00:00 8.7 11 Nordeste 37 Norte 0 -- -- 68
2020-01-10 01:00:00 7.4 3 Noroeste 14 Noroeste 0 -- -- 76
2020-01-10 00:00:00 8.8 5 Noroeste 17 Nordeste 0 -- -- 75
2020-01-09 23:00:00 9 4 Noroeste 15 Noroeste 0 -- -- 81
2020-01-09 22:00:00 9.3 2 Noroeste 12 Noroeste 0 -- -- 76
2020-01-09 21:00:00 10.3 3 Noroeste 12 Noroeste 0 -- -- 73
2020-01-09 20:00:00 10.6 5 Noroeste 14 Noroeste 0 -- -- 71
2020-01-09 19:00:00 11.4 4 Oeste 9 Noroeste 0 -- -- 66
2020-01-09 18:00:00 12.3 4 Oeste 12 Noroeste 0 -- -- 62
2020-01-09 17:00:00 13.5 5 Oeste 16 Noroeste 0 -- -- 59
2020-01-09 16:00:00 13.5 5 Oeste 12 Oeste 0 -- -- 56
2020-01-09 15:00:00 12.7 5 Oeste 17 Noroeste 0 -- -- 59
2020-01-09 14:00:00 12.7 6 Sudoeste 12 Sudoeste 0 -- -- 60
2020-01-09 13:00:00 11.8 0 Calma 9 Sudoeste 0 -- -- 68
2020-01-09 12:00:00 9.3 3 Este 10 Este 0 -- -- 74
2020-01-09 11:00:00 5.9 4 Este 12 Este 0 -- -- 76
2020-01-09 10:00:00 4.9 0 Calma 9 Este 0 -- -- 87
2020-01-09 09:00:00 4.9 2 Este 7 Sudeste 0 -- -- 86
2020-01-09 08:00:00 5.1 2 Este 14 Este 0 -- -- 80
2020-01-09 07:00:00 4.2 6 Este 15 Este 0 -- -- 84
2020-01-09 06:00:00 4.7 3 Este 7 Sudeste 0 -- -- 89
2020-01-09 05:00:00 5.4 0 Calma 7 Este 0 -- -- 89
2020-01-09 04:00:00 5.1 4 Este 14 Este 0 -- -- 76
2020-01-09 03:00:00 4.8 6 Este 18 Este 0 -- -- 81
2020-01-09 02:00:00 4.6 6 Este 10 Este 0 -- -- 88
2020-01-09 01:00:00 5 0 Calma 9 Este 0 -- -- 87
2020-01-09 00:00:00 5.6 6 Este 8 Este 0 -- -- 88
2020-01-08 23:00:00 6.2 0 Calma 7 Este 0 -- -- 87
2020-01-08 22:00:00 6.5 3 Este 6 Este 0 -- -- 85
2020-01-08 21:00:00 7.2 0 Calma 5 Sudeste 0 -- -- 81
2020-01-08 20:00:00 8.3 3 Este 7 Este 0 -- -- 75
2020-01-08 19:00:00 9.7 2 Este 7 Sudeste 0 -- -- 69
2020-01-08 18:00:00 12.1 0 Calma 8 Oeste 0 -- -- 62
2020-01-08 17:00:00 13.1 4 Oeste 10 Oeste 0 -- -- 62
2020-01-08 16:00:00 13 5 Oeste 11 Oeste 0 -- -- 64
2020-01-08 15:00:00 12.1 4 Oeste 10 Oeste 0 -- -- 65
2020-01-08 14:00:00 11.8 0 Calma 8 Sudeste 0 -- -- 66
2020-01-08 13:00:00 10.3 3 Sudeste 10 Este 0 -- -- 74
2020-01-08 12:00:00 7.4 0 Calma 13 Este 0 -- -- 84
2020-01-08 11:00:00 4.4 4 Este 9 Este 0 -- -- 93
2020-01-08 10:00:00 2.1 0 Calma 8 Este 0 -- -- 95
2020-01-08 09:00:00 1.3 0 Calma 6 Sudeste 0 -- -- 92
2020-01-08 08:00:00 2.7 3 Este 9 Este 0 -- -- 91
2020-01-08 07:00:00 3.9 5 Este 13 Este 0 -- -- 91
2020-01-08 06:00:00 4.4 4 Este 13 Este 0 -- -- 94
2020-01-08 05:00:00 3.6 3 Este 6 Este 0 -- -- 90
2020-01-08 04:00:00 3.2 0 Calma 6 Este 0 -- -- 90
2020-01-08 03:00:00 3.5 3 Sudeste 8 Este 0 -- -- 91
2020-01-08 02:00:00 3.7 0 Calma 4 Sudeste 0 -- -- 91
2020-01-08 01:00:00 4.5 4 Este 9 Este 0 -- -- 87
2020-01-08 00:00:00 5.4 6 Este 9 Este 0 -- -- 87
2020-01-07 23:00:00 5.8 6 Este 9 Este 0 -- -- 85
2020-01-07 22:00:00 7 5 Sudeste 9 Este 0 -- -- 80
2020-01-07 21:00:00 8.2 4 Este 7 Este 0 -- -- 75
2020-01-07 20:00:00 9.4 0 Calma -- -- 0 -- -- 66
2020-01-07 19:00:00 10.5 0 Calma 6 Oeste 0 -- -- 62
2020-01-07 18:00:00 12.9 3 Oeste 10 Oeste 0 -- -- 56
2020-01-07 17:00:00 13.9 4 Oeste 12 Sudoeste 0 -- -- 56
2020-01-07 16:00:00 13.5 5 Oeste 11 Oeste 0 -- -- 56
2020-01-07 15:00:00 13.2 3 Sudoeste 10 Sudoeste 0 -- -- 58
2020-01-07 14:00:00 12.2 0 Calma 9 Sur 0 -- -- 62
2020-01-07 13:00:00 11.2 3 Sudeste 9 Este 0 -- -- 66
2020-01-07 12:00:00 8 0 Calma 5 Sudeste 0 -- -- 77
2020-01-07 11:00:00 5 2 Este 7 Este 0 -- -- 86
2020-01-07 10:00:00 3.4 4 Sudeste 9 Este 0 -- -- 84
2020-01-07 09:00:00 1.9 0 Calma 7 Este 0 -- -- 87
2020-01-07 08:00:00 3.4 0 Calma 9 Este 0 -- -- 84
2020-01-07 07:00:00 3.3 2 Este 6 Este 0 -- -- 87
2020-01-07 06:00:00 3.3 2 Este 7 Este 0 -- -- 86
2020-01-07 05:00:00 3.7 4 Este 11 Este 0 -- -- 84
2020-01-07 04:00:00 3.9 5 Este 10 Este 0 -- -- 85
2020-01-07 03:00:00 4.1 5 Este 7 Sudeste 0 -- -- 87
2020-01-07 02:00:00 4.2 3 Este 9 Este 0 -- -- 86
2020-01-07 01:00:00 4.6 5 Este 13 Este 0 -- -- 84
2020-01-07 00:00:00 5.7 6 Este 11 Este 0 -- -- 83
2020-01-06 23:00:00 6 0 Calma 6 Este 0 -- -- 81
2020-01-06 22:00:00 6.5 0 Calma 7 Este 0 -- -- 80
2020-01-06 21:00:00 7.7 2 Este 10 Nordeste 0 -- -- 76
2020-01-06 20:00:00 8.5 0 Calma 12 Oeste 0 -- -- 72
2020-01-06 19:00:00 9.7 4 Noroeste 12 Oeste 0 -- -- 67
2020-01-06 18:00:00 12 2 Oeste 7 Oeste 0 -- -- 61
2020-01-06 17:00:00 12.9 3 Oeste 9 Noroeste 0 -- -- 59
2020-01-06 16:00:00 13.2 4 Sudoeste 11 Oeste 0 -- -- 57
2020-01-06 15:00:00 12.6 3 Oeste 10 Este 0 -- -- 59
2020-01-06 14:00:00 12.3 4 Sudeste 10 Nordeste 0 -- -- 59
2020-01-06 13:00:00 10.8 2 Este 9 Este 0 -- -- 65
2020-01-06 12:00:00 7.9 3 Este 8 Sudeste 0 -- -- 76
2020-01-06 11:00:00 5.2 3 Este 8 Este 0 -- -- 87
2020-01-06 10:00:00 1.8 0 Calma 11 Este 0 -- -- 83